Time;durP1;ratioP1;P1;durP2;ratioP2;P2;SDS_P1;SDS_P2;PMS_P1;PMS_P2;Temp;Humidity;BMP_temperature;BMP_pressure;BME280_temperature;BME280_humidity;BME280_pressure;Samples;Min_cycle;Max_cycle;Signal;HPM_P1;HPM_P2
2021/03/18 00:01:28;;;;;;;2.20;1.42;;;23.90;26.80;;;;;;5048199;28;20036;-58
2021/03/18 00:03:54;;;;;;;2.58;1.73;;;23.90;26.80;;;;;;5048756;28;20417;-58
2021/03/18 00:06:20;;;;;;;2.80;1.33;;;23.80;26.80;;;;;;5048911;28;20040;-62
2021/03/18 00:08:46;;;;;;;2.15;1.40;;;23.80;26.80;;;;;;5048762;28;20032;-58
2021/03/18 00:11:16;;;;;;;2.42;1.38;;;23.80;26.80;;;;;;5047985;28;20045;-58
2021/03/18 00:13:43;;;;;;;2.58;1.67;;;23.80;26.80;;;;;;5048597;28;20022;-57
2021/03/18 00:16:09;;;;;;;1.70;1.13;;;23.70;26.70;;;;;;5048341;28;20103;-59
2021/03/18 00:18:45;;;;;;;2.95;1.35;;;23.80;26.80;;;;;;5048796;28;20026;-59
2021/03/18 00:21:11;;;;;;;1.88;1.20;;;23.70;26.70;;;;;;5045533;28;20029;-58
2021/03/18 00:23:37;;;;;;;2.45;1.23;;;23.70;26.80;;;;;;5032146;28;20026;-57
2021/03/18 00:26:04;;;;;;;2.42;1.25;;;23.70;26.70;;;;;;5035307;28;20384;-58
2021/03/18 00:28:30;;;;;;;2.17;1.30;;;23.70;26.70;;;;;;5035124;28;20021;-58
2021/03/18 00:30:57;;;;;;;3.42;1.10;;;23.70;26.70;;;;;;5035565;28;20052;-58
2021/03/18 00:33:23;;;;;;;1.42;1.10;;;23.60;26.70;;;;;;5034287;28;20449;-62
2021/03/18 00:35:49;;;;;;;2.70;1.30;;;23.60;26.70;;;;;;5034782;28;20342;-58
2021/03/18 00:38:15;;;;;;;2.22;1.58;;;23.60;26.70;;;;;;5034043;28;20032;-57
2021/03/18 00:40:44;;;;;;;1.55;1.10;;;23.60;26.70;;;;;;5035404;28;20391;-59
2021/03/18 00:43:13;;;;;;;1.52;0.90;;;23.60;26.70;;;;;;5035242;28;20040;-57
2021/03/18 00:45:43;;;;;;;1.30;0.95;;;23.50;26.70;;;;;;5016503;28;20044;-59
2021/03/18 00:48:10;;;;;;;2.53;1.30;;;23.50;26.70;;;;;;5035319;28;20075;-58
2021/03/18 00:50:44;;;;;;;1.67;1.00;;;23.50;26.70;;;;;;5033469;28;20045;-57
2021/03/18 00:53:21;;;;;;;1.65;0.90;;;23.50;26.70;;;;;;5034661;28;20118;-56
2021/03/18 00:55:48;;;;;;;1.47;1.10;;;23.50;26.80;;;;;;5033877;28;20187;-60
2021/03/18 00:58:17;;;;;;;1.67;0.93;;;23.50;26.80;;;;;;5034794;28;20630;-58
2021/03/18 01:00:53;;;;;;;2.58;1.02;;;23.50;26.80;;;;;;5033816;28;20518;-58
2021/03/18 01:03:20;;;;;;;1.88;0.93;;;23.50;26.80;;;;;;5033573;28;20341;-57
2021/03/18 01:06:12;;;;;;;2.92;1.38;;;23.40;26.70;;;;;;5033578;28;20120;-59
2021/03/18 01:08:39;;;;;;;1.52;0.80;;;23.40;26.70;;;;;;5022362;28;20076;-58
2021/03/18 01:11:16;;;;;;;1.73;1.00;;;23.40;26.80;;;;;;5032437;28;20100;-54
2021/03/18 01:13:46;;;;;;;1.00;0.75;;;23.40;26.70;;;;;;5032948;28;20029;-58
2021/03/18 01:16:16;;;;;;;3.10;1.10;;;23.40;26.70;;;;;;5034232;28;20033;-59
2021/03/18 01:18:48;;;;;;;1.45;0.80;;;23.40;26.80;;;;;;5034650;28;20033;-59
2021/03/18 01:21:15;;;;;;;1.50;0.90;;;23.40;26.80;;;;;;5034382;28;20028;-58
2021/03/18 01:23:41;;;;;;;1.63;1.02;;;23.30;26.70;;;;;;5034848;28;20030;-59
2021/03/18 01:26:08;;;;;;;1.30;0.90;;;23.30;26.70;;;;;;5034527;28;20452;-59
2021/03/18 01:28:35;;;;;;;2.05;0.90;;;23.30;26.70;;;;;;5034892;28;20029;-56
2021/03/18 01:31:03;;;;;;;1.52;1.00;;;23.30;26.70;;;;;;5033666;28;20056;-59
2021/03/18 01:33:29;;;;;;;1.58;0.90;;;23.30;26.80;;;;;;5033452;28;20127;-58
2021/03/18 01:35:54;;;;;;;1.20;0.77;;;23.30;26.70;;;;;;5032148;28;20057;-60
2021/03/18 01:38:20;;;;;;;2.53;0.88;;;23.30;26.70;;;;;;5034243;28;20441;-59
2021/03/18 01:40:46;;;;;;;1.83;1.00;;;23.30;26.80;;;;;;5034089;28;20036;-59
2021/03/18 01:43:13;;;;;;;1.52;0.80;;;23.30;26.80;;;;;;5034115;28;20021;-60
2021/03/18 01:45:39;;;;;;;1.50;0.90;;;23.20;26.70;;;;;;5033887;28;21347;-58
2021/03/18 01:48:06;;;;;;;2.08;0.98;;;23.20;26.70;;;;;;5035000;28;20039;-57
2021/03/18 01:50:35;;;;;;;1.70;0.90;;;23.20;26.70;;;;;;5033684;28;20336;-58
2021/03/18 01:53:01;;;;;;;2.33;0.90;;;23.20;26.80;;;;;;5034172;28;20179;-58
2021/03/18 01:55:33;;;;;;;2.15;0.85;;;23.20;26.70;;;;;;5033557;28;20045;-59
2021/03/18 01:57:58;;;;;;;2.47;0.85;;;23.20;26.70;;;;;;5033907;28;20041;-59
2021/03/18 02:00:26;;;;;;;1.83;0.85;;;23.20;26.80;;;;;;5033198;28;20029;-58
2021/03/18 02:02:53;;;;;;;1.55;0.90;;;23.20;26.80;;;;;;5033852;28;20091;-60
2021/03/18 02:05:20;;;;;;;1.42;0.90;;;23.20;26.80;;;;;;5033769;28;20105;-58
2021/03/18 02:07:48;;;;;;;2.20;0.88;;;23.20;26.80;;;;;;5033741;28;20037;-62
2021/03/18 02:10:14;;;;;;;1.70;0.90;;;23.20;26.80;;;;;;5031827;28;20205;-59
2021/03/18 02:12:40;;;;;;;1.77;0.80;;;23.10;26.80;;;;;;5033858;28;20105;-58
2021/03/18 02:15:08;;;;;;;1.00;0.47;;;23.10;26.80;;;;;;5035150;28;20033;-55
2021/03/18 02:17:43;;;;;;;1.30;0.68;;;23.10;26.80;;;;;;5038802;28;20029;-53
2021/03/18 02:20:31;;;;;;;1.88;0.73;;;23.10;26.80;;;;;;5038043;28;20032;-52
2021/03/18 02:23:38;;;;;;;1.70;0.88;;;23.10;26.80;;;;;;5038507;28;20236;-53
2021/03/18 02:26:19;;;;;;;1.10;0.60;;;23.10;26.80;;;;;;5038301;28;20069;-51
2021/03/18 02:29:16;;;;;;;1.45;0.82;;;23.00;26.90;;;;;;5037706;28;20089;-55
2021/03/18 02:32:18;;;;;;;2.13;0.60;;;23.10;26.90;;;;;;5035649;28;20065;-55
2021/03/18 02:35:26;;;;;;;1.88;0.80;;;23.00;26.90;;;;;;5034047;28;20452;-59
2021/03/18 02:38:10;;;;;;;2.05;0.65;;;23.00;26.90;;;;;;5033957;28;20046;-59
2021/03/18 02:40:44;;;;;;;1.70;0.80;;;23.00;26.90;;;;;;5032661;28;20041;-59
2021/03/18 02:43:14;;;;;;;1.20;0.60;;;23.00;26.90;;;;;;5033448;28;20036;-59
2021/03/18 02:45:47;;;;;;;1.20;0.70;;;23.00;26.90;;;;;;5034892;28;20021;-51
2021/03/18 02:48:20;;;;;;;1.20;0.60;;;23.00;26.90;;;;;;5037402;28;20040;-51
2021/03/18 02:50:47;;;;;;;1.60;1.00;;;23.00;26.90;;;;;;5038530;28;20033;-49
2021/03/18 02:53:17;;;;;;;1.42;0.70;;;22.90;26.90;;;;;;5033792;28;20444;-52
2021/03/18 02:55:43;;;;;;;2.22;0.68;;;22.90;26.90;;;;;;5033740;28;20471;-53
2021/03/18 02:58:13;;;;;;;1.30;0.55;;;22.90;26.90;;;;;;5035779;28;20037;-53
2021/03/18 03:00:39;;;;;;;1.65;0.60;;;22.90;26.90;;;;;;5033938;28;20060;-59
2021/03/18 03:03:07;;;;;;;1.50;0.57;;;22.90;26.90;;;;;;5032617;28;20029;-60
2021/03/18 03:05:34;;;;;;;1.42;0.60;;;22.90;26.90;;;;;;5031895;28;20435;-57
2021/03/18 03:08:01;;;;;;;2.08;0.80;;;22.90;26.90;;;;;;5032931;28;20040;-58
2021/03/18 03:10:28;;;;;;;0.90;0.50;;;22.80;26.90;;;;;;5041611;28;20052;-59
2021/03/18 03:12:56;;;;;;;1.45;0.65;;;22.90;27.00;;;;;;5052191;28;20436;-59
2021/03/18 03:15:27;;;;;;;1.77;0.80;;;22.90;27.00;;;;;;5052925;28;20017;-57
2021/03/18 03:17:56;;;;;;;1.38;0.60;;;22.80;26.90;;;;;;5053565;28;20029;-59
2021/03/18 03:20:22;;;;;;;2.00;0.60;;;22.80;26.90;;;;;;5053039;28;20032;-60
2021/03/18 03:22:48;;;;;;;2.95;0.70;;;22.80;27.00;;;;;;5035020;28;20496;-58
2021/03/18 03:25:15;;;;;;;2.22;0.85;;;22.80;27.00;;;;;;5052854;28;20166;-58
2021/03/18 03:27:47;;;;;;;1.52;0.60;;;22.80;26.90;;;;;;5051793;28;20368;-57
2021/03/18 03:30:15;;;;;;;1.10;0.50;;;22.80;26.90;;;;;;5052396;28;20063;-58
2021/03/18 03:32:42;;;;;;;1.30;0.85;;;22.80;27.00;;;;;;5049587;28;20094;-59
2021/03/18 03:35:09;;;;;;;0.80;0.63;;;22.80;27.00;;;;;;5050022;28;20020;-58
2021/03/18 03:37:35;;;;;;;1.20;0.60;;;22.80;27.00;;;;;;5052810;28;20408;-59
2021/03/18 03:40:03;;;;;;;1.65;0.65;;;22.80;27.00;;;;;;5052269;28;20087;-60
2021/03/18 03:42:29;;;;;;;1.73;0.80;;;22.80;27.00;;;;;;5052091;28;20056;-60
2021/03/18 03:44:55;;;;;;;1.33;0.63;;;22.70;27.00;;;;;;5052688;28;20017;-60
2021/03/18 03:47:21;;;;;;;1.58;0.55;;;22.70;26.90;;;;;;5052495;28;20017;-60
2021/03/18 03:49:47;;;;;;;1.15;0.50;;;22.70;26.90;;;;;;5051546;28;20043;-61
2021/03/18 03:52:22;;;;;;;2.00;0.60;;;22.70;26.90;;;;;;5034801;28;20028;-61
2021/03/18 03:54:59;;;;;;;1.52;0.68;;;22.70;27.00;;;;;;5052428;28;20059;-59
2021/03/18 03:57:43;;;;;;;1.40;0.60;;;22.70;26.90;;;;;;5054062;28;20368;-59
2021/03/18 04:00:09;;;;;;;0.85;0.50;;;22.70;26.90;;;;;;5056192;28;20021;-60
2021/03/18 04:02:36;;;;;;;1.08;0.60;;;22.70;27.00;;;;;;5056303;28;20036;-59
2021/03/18 04:05:03;;;;;;;1.20;0.60;;;22.70;27.00;;;;;;5055462;28;20314;-57
2021/03/18 04:07:33;;;;;;;0.93;0.52;;;22.70;27.00;;;;;;5035534;28;20452;-58
2021/03/18 04:10:01;;;;;;;1.38;0.40;;;22.70;27.00;;;;;;5053386;28;20044;-59
2021/03/18 04:12:34;;;;;;;1.67;0.68;;;22.60;26.90;;;;;;5055062;28;20040;-57
2021/03/18 04:15:09;;;;;;;1.65;0.70;;;22.60;26.90;;;;;;5056208;28;20119;-58
2021/03/18 04:17:39;;;;;;;1.50;0.65;;;22.60;26.90;;;;;;5053065;28;20040;-58
2021/03/18 04:20:09;;;;;;;1.17;0.70;;;22.60;27.00;;;;;;5055708;28;20033;-59
2021/03/18 04:22:35;;;;;;;1.67;0.63;;;22.60;27.00;;;;;;5055544;28;20032;-57
2021/03/18 04:25:04;;;;;;;1.33;0.57;;;22.60;27.10;;;;;;5055656;28;20119;-60
2021/03/18 04:27:33;;;;;;;2.13;0.60;;;22.60;27.00;;;;;;5055719;28;20109;-57
2021/03/18 04:30:02;;;;;;;1.38;0.60;;;22.60;27.00;;;;;;5055663;28;20037;-58
2021/03/18 04:32:28;;;;;;;2.08;0.70;;;22.60;27.00;;;;;;5053776;28;20020;-59
2021/03/18 04:34:55;;;;;;;0.90;0.68;;;22.50;27.00;;;;;;5055588;28;20028;-58
2021/03/18 04:37:22;;;;;;;1.77;0.73;;;22.50;27.00;;;;;;5055819;28;20033;-59
2021/03/18 04:39:48;;;;;;;1.55;0.68;;;22.50;27.00;;;;;;5056180;28;20044;-60
2021/03/18 04:42:15;;;;;;;1.83;0.73;;;22.50;27.00;;;;;;5054802;28;20048;-59
2021/03/18 04:44:43;;;;;;;1.20;0.60;;;22.60;27.10;;;;;;5054950;28;20029;-60
2021/03/18 04:47:09;;;;;;;1.98;0.60;;;22.50;27.10;;;;;;5052565;28;20112;-60
2021/03/18 04:49:38;;;;;;;1.73;0.70;;;22.50;27.10;;;;;;5055157;28;20186;-60
2021/03/18 04:52:04;;;;;;;1.23;0.65;;;22.50;27.10;;;;;;5054774;28;20112;-59
2021/03/18 04:54:30;;;;;;;1.23;0.60;;;22.50;27.10;;;;;;5055265;28;20044;-61
2021/03/18 04:56:57;;;;;;;1.13;0.70;;;22.50;27.10;;;;;;5054995;28;20025;-58
2021/03/18 04:59:24;;;;;;;1.13;0.57;;;22.50;27.10;;;;;;5054944;28;20025;-60
2021/03/18 05:01:53;;;;;;;1.90;0.70;;;22.50;27.10;;;;;;5052911;28;20060;-60
2021/03/18 05:04:21;;;;;;;1.73;0.55;;;22.50;27.10;;;;;;5054754;28;20424;-55
2021/03/18 05:06:53;;;;;;;0.93;0.50;;;22.50;27.10;;;;;;5036515;28;20057;-58
2021/03/18 05:09:23;;;;;;;1.67;0.55;;;22.50;27.10;;;;;;5054216;28;20037;-57
2021/03/18 05:11:50;;;;;;;0.98;0.60;;;22.40;27.10;;;;;;5049751;28;20135;-58
2021/03/18 05:14:16;;;;;;;1.98;1.00;;;22.40;27.10;;;;;;5055360;28;20025;-58
2021/03/18 05:16:42;;;;;;;1.85;0.60;;;22.40;27.10;;;;;;5054504;28;20035;-58
2021/03/18 05:19:10;;;;;;;0.90;0.50;;;22.40;27.10;;;;;;5035434;28;20040;-55
2021/03/18 05:21:39;;;;;;;1.70;0.70;;;22.50;27.10;;;;;;5054482;28;20029;-61
2021/03/18 05:24:07;;;;;;;2.00;0.80;;;22.40;27.10;;;;;;5054351;28;20047;-59
2021/03/18 05:26:33;;;;;;;1.27;0.80;;;22.40;27.10;;;;;;5051787;28;20032;-59
2021/03/18 05:28:59;;;;;;;1.80;0.60;;;22.40;27.10;;;;;;5054554;28;20120;-60
2021/03/18 05:31:25;;;;;;;1.70;0.70;;;22.40;27.10;;;;;;5054525;28;20115;-60
2021/03/18 05:33:51;;;;;;;2.25;0.70;;;22.40;27.10;;;;;;5050981;28;20433;-60
2021/03/18 05:36:18;;;;;;;1.55;0.60;;;22.40;27.10;;;;;;5050927;28;20033;-56
2021/03/18 05:38:44;;;;;;;0.88;0.43;;;22.40;27.10;;;;;;5054656;28;20017;-61
2021/03/18 05:41:10;;;;;;;1.83;0.68;;;22.40;27.10;;;;;;5053757;28;20032;-58
2021/03/18 05:43:36;;;;;;;1.17;0.50;;;22.40;27.10;;;;;;5054191;28;20416;-59
2021/03/18 05:46:03;;;;;;;1.77;0.60;;;22.40;27.10;;;;;;5054028;28;20036;-60
2021/03/18 05:48:29;;;;;;;1.15;0.47;;;22.40;27.10;;;;;;5054046;28;20082;-58
2021/03/18 05:50:56;;;;;;;1.77;0.60;;;22.40;27.20;;;;;;5053351;28;20041;-58
2021/03/18 05:53:23;;;;;;;1.13;0.60;;;22.40;27.10;;;;;;5053633;28;20028;-59
2021/03/18 05:55:51;;;;;;;0.73;0.40;;;22.30;27.10;;;;;;5053976;28;20032;-58
2021/03/18 05:58:23;;;;;;;1.40;0.60;;;22.40;27.20;;;;;;5035812;28;20025;-61
2021/03/18 06:00:51;;;;;;;3.53;0.88;;;22.40;27.20;;;;;;5036636;28;20029;-59
2021/03/18 06:03:18;;;;;;;0.75;0.60;;;22.30;27.10;;;;;;5035503;28;20119;-58
2021/03/18 06:05:46;;;;;;;1.10;0.50;;;22.30;27.10;;;;;;5053516;28;20024;-59
2021/03/18 06:08:12;;;;;;;1.02;0.50;;;22.30;27.10;;;;;;5050907;28;20029;-58
2021/03/18 06:10:38;;;;;;;1.27;0.68;;;22.30;27.20;;;;;;5052666;28;20056;-59
2021/03/18 06:13:05;;;;;;;1.00;0.50;;;22.30;27.20;;;;;;5053281;28;20044;-58
2021/03/18 06:15:31;;;;;;;1.05;0.52;;;22.30;27.20;;;;;;5053685;28;20032;-60
2021/03/18 06:17:57;;;;;;;2.47;0.63;;;22.30;27.20;;;;;;5054278;28;20166;-59
2021/03/18 06:20:27;;;;;;;0.90;0.60;;;22.30;27.20;;;;;;5053327;28;20429;-57
2021/03/18 06:22:54;;;;;;;1.35;0.50;;;22.30;27.70;;;;;;5053642;28;20021;-59
2021/03/18 06:25:20;;;;;;;1.13;0.65;;;22.30;27.20;;;;;;5052770;28;20099;-59
2021/03/18 06:27:46;;;;;;;0.82;0.57;;;22.30;27.20;;;;;;5051989;28;20156;-56
2021/03/18 06:30:13;;;;;;;1.60;0.60;;;22.20;27.20;;;;;;5052073;28;20064;-59
2021/03/18 06:32:39;;;;;;;1.95;0.73;;;22.30;27.20;;;;;;5053083;28;20033;-58
2021/03/18 06:35:05;;;;;;;0.93;0.57;;;22.20;27.20;;;;;;5053449;28;20040;-59
2021/03/18 06:37:46;;;;;;;2.15;0.63;;;22.30;27.30;;;;;;5053010;28;20066;-59
2021/03/18 06:40:27;;;;;;;1.13;0.50;;;22.20;27.20;;;;;;5052640;28;20100;-60
2021/03/18 06:43:00;;;;;;;1.63;0.70;;;22.20;27.30;;;;;;5050734;28;20025;-60
2021/03/18 06:45:34;;;;;;;1.33;0.55;;;22.20;27.30;;;;;;5035523;28;20036;-58
2021/03/18 06:48:04;;;;;;;1.52;0.70;;;22.20;27.30;;;;;;5051701;28;20032;-58
2021/03/18 06:50:40;;;;;;;2.15;0.80;;;22.20;27.40;;;;;;5051522;28;20037;-61
2021/03/18 06:53:29;;;;;;;1.83;0.73;;;22.20;27.40;;;;;;5053191;28;20017;-56
2021/03/18 06:55:57;;;;;;;1.30;0.57;;;22.20;27.40;;;;;;5052350;28;20143;-56
2021/03/18 06:58:28;;;;;;;1.83;0.93;;;22.20;27.40;;;;;;5052416;28;20021;-60
2021/03/18 07:00:57;;;;;;;1.38;0.52;;;22.20;27.50;;;;;;5050540;28;20474;-59
2021/03/18 07:03:23;;;;;;;1.83;0.85;;;22.20;27.50;;;;;;5052267;28;20122;-59
2021/03/18 07:05:49;;;;;;;2.70;0.75;;;22.20;27.50;;;;;;5052238;28;20503;-58
2021/03/18 07:08:35;;;;;;;1.17;0.70;;;22.20;28.00;;;;;;5052650;28;20151;-59
2021/03/18 07:11:18;;;;;;;1.23;0.60;;;22.20;27.60;;;;;;5050161;28;20045;-60
2021/03/18 07:13:45;;;;;;;2.08;0.90;;;22.20;27.60;;;;;;5052984;28;20115;-58
2021/03/18 07:16:12;;;;;;;1.42;0.65;;;22.20;27.60;;;;;;5034336;28;20517;-60
2021/03/18 07:18:39;;;;;;;1.95;0.95;;;22.20;27.60;;;;;;5052435;28;20029;-61
2021/03/18 07:21:13;;;;;;;2.17;0.90;;;22.20;27.60;;;;;;5052257;28;20044;-59
2021/03/18 07:23:39;;;;;;;1.08;0.57;;;22.20;27.60;;;;;;5050532;28;20037;-60
2021/03/18 07:26:36;;;;;;;1.85;0.80;;;22.20;27.70;;;;;;5035659;28;20036;-59
2021/03/18 07:29:13;;;;;;;1.52;0.80;;;22.20;27.70;;;;;;5052257;28;20037;-59
2021/03/18 07:31:40;;;;;;;1.73;1.00;;;22.20;27.80;;;;;;5051298;28;20032;-59
2021/03/18 07:34:06;;;;;;;2.20;0.80;;;22.10;27.70;;;;;;5056188;28;20044;-57
2021/03/18 07:36:32;;;;;;;3.03;1.15;;;22.10;27.70;;;;;;5056391;28;20056;-61
2021/03/18 07:38:58;;;;;;;1.75;0.77;;;22.20;27.80;;;;;;5056066;28;20441;-59
2021/03/18 07:41:24;;;;;;;1.48;0.68;;;22.10;27.70;;;;;;5056454;28;20025;-60
2021/03/18 07:43:51;;;;;;;1.80;0.88;;;22.10;27.80;;;;;;5056478;28;20017;-59
2021/03/18 07:46:19;;;;;;;1.83;0.88;;;22.10;27.80;;;;;;5053525;28;20166;-61
2021/03/18 07:49:13;;;;;;;2.58;0.90;;;22.10;27.90;;;;;;5054997;28;20028;-59
2021/03/18 07:51:40;;;;;;;1.73;0.90;;;22.20;28.00;;;;;;5037451;28;20427;-60
2021/03/18 07:54:11;;;;;;;2.40;0.88;;;22.20;28.20;;;;;;5056138;28;20369;-58
2021/03/18 07:56:37;;;;;;;4.53;1.80;;;22.30;28.30;;;;;;5054768;28;20556;-57
2021/03/18 07:59:09;;;;;;;1.42;0.70;;;22.30;28.30;;;;;;5055707;28;20029;-62
2021/03/18 08:01:37;;;;;;;4.47;0.80;;;22.30;28.20;;;;;;5052267;28;20040;-60
2021/03/18 08:04:08;;;;;;;2.80;0.77;;;22.40;28.20;;;;;;5054952;28;20112;-61
2021/03/18 08:06:40;;;;;;;2.42;0.90;;;22.40;28.20;;;;;;5055058;28;20358;-59
2021/03/18 08:09:15;;;;;;;2.97;0.90;;;22.50;28.20;;;;;;5056149;28;20086;-59
2021/03/18 08:11:42;;;;;;;2.10;0.85;;;22.50;28.10;;;;;;5055638;28;20056;-62
2021/03/18 08:14:14;;;;;;;1.83;0.70;;;22.60;28.10;;;;;;5054909;28;20067;-61
2021/03/18 08:16:40;;;;;;;1.88;0.98;;;22.60;28.00;;;;;;5055583;28;20037;-59
2021/03/18 08:19:09;;;;;;;2.67;0.70;;;22.70;28.00;;;;;;5055459;28;20047;-60
2021/03/18 08:21:46;;;;;;;1.73;0.73;;;22.70;28.00;;;;;;5055752;28;20085;-60
2021/03/18 08:24:14;;;;;;;2.30;0.63;;;22.80;28.00;;;;;;5057027;28;20040;-57
2021/03/18 08:26:44;;;;;;;1.63;0.70;;;22.80;28.00;;;;;;5056535;28;20025;-61
2021/03/18 08:29:17;;;;;;;1.77;0.70;;;22.90;28.00;;;;;;5056466;28;20049;-59
2021/03/18 08:32:04;;;;;;;2.08;0.85;;;22.90;28.00;;;;;;5054979;28;20064;-57
2021/03/18 08:34:54;;;;;;;1.77;0.50;;;23.00;28.00;;;;;;5055152;28;20056;-61
2021/03/18 08:37:37;;;;;;;2.72;0.98;;;23.00;28.00;;;;;;5054499;28;20032;-60
2021/03/18 08:40:20;;;;;;;2.35;0.70;;;23.00;28.00;;;;;;5037898;28;20416;-61
2021/03/18 08:42:50;;;;;;;1.17;0.60;;;23.00;28.00;;;;;;5054402;28;20043;-60
2021/03/18 08:45:19;;;;;;;2.05;0.80;;;23.10;28.00;;;;;;5054645;28;20078;-59
2021/03/18 08:47:56;;;;;;;2.13;0.70;;;23.10;28.00;;;;;;5051787;28;20040;-61
2021/03/18 08:50:24;;;;;;;2.75;1.05;;;23.10;28.00;;;;;;5054068;28;20044;-57
2021/03/18 08:52:52;;;;;;;2.38;0.75;;;23.20;28.10;;;;;;5054106;28;20040;-55
2021/03/18 08:55:38;;;;;;;1.60;0.70;;;23.10;28.00;;;;;;5052593;28;20034;-58
2021/03/18 08:58:05;;;;;;;1.23;0.70;;;23.20;28.10;;;;;;5053797;28;20033;-57
2021/03/18 09:00:32;;;;;;;1.48;0.50;;;23.20;28.10;;;;;;5053964;28;20094;-57
2021/03/18 09:03:01;;;;;;;1.65;0.70;;;23.20;28.60;;;;;;5036878;28;20056;-56
2021/03/18 09:05:27;;;;;;;1.50;0.68;;;23.20;28.10;;;;;;5054094;28;20033;-59
2021/03/18 09:07:55;;;;;;;2.70;1.27;;;23.20;28.10;;;;;;5033702;28;20039;-61
2021/03/18 09:10:24;;;;;;;4.97;1.35;;;23.20;28.70;;;;;;5055725;28;20128;-62
2021/03/18 09:12:53;;;;;;;2.78;1.00;;;23.20;28.30;;;;;;5056554;28;20043;-60
2021/03/18 09:15:22;;;;;;;3.17;0.95;;;23.20;28.30;;;;;;5038061;28;20029;-61
2021/03/18 09:17:51;;;;;;;2.85;1.17;;;23.20;28.40;;;;;;5036636;28;20040;-61
2021/03/18 09:20:21;;;;;;;3.47;1.00;;;23.30;28.40;;;;;;5053868;28;20358;-61
2021/03/18 09:22:47;;;;;;;2.33;0.90;;;23.40;28.40;;;;;;5056048;28;20111;-54
2021/03/18 09:25:14;;;;;;;2.05;0.98;;;23.40;28.40;;;;;;5055335;28;20087;-59
2021/03/18 09:27:43;;;;;;;3.38;1.27;;;23.40;28.40;;;;;;5056187;28;20037;-52
2021/03/18 09:30:31;;;;;;;1.88;0.68;;;23.50;28.50;;;;;;5051706;28;20040;-58
2021/03/18 09:32:59;;;;;;;2.53;0.82;;;23.50;28.50;;;;;;5045150;28;20028;-59
2021/03/18 09:35:26;;;;;;;2.60;0.93;;;23.60;28.50;;;;;;5055894;28;20046;-60
2021/03/18 09:37:53;;;;;;;4.25;1.02;;;23.60;28.50;;;;;;5055377;28;20033;-59
2021/03/18 09:40:30;;;;;;;2.03;0.95;;;23.60;28.40;;;;;;5038317;28;20104;-63
2021/03/18 09:42:57;;;;;;;1.60;0.98;;;23.60;28.50;;;;;;5054274;28;20028;-57
2021/03/18 09:45:22;;;;;;;1.52;0.82;;;23.60;28.50;;;;;;5055108;28;20052;-60
2021/03/18 09:47:50;;;;;;;2.53;1.25;;;23.60;28.50;;;;;;5055674;28;20372;-65
2021/03/18 09:50:16;;;;;;;3.50;1.10;;;23.70;28.50;;;;;;5037932;28;20049;-62
2021/03/18 09:52:42;;;;;;;2.42;1.08;;;23.70;28.50;;;;;;5037394;28;20095;-66
2021/03/18 09:55:14;;;;;;;2.80;0.90;;;23.70;28.50;;;;;;5054491;28;20428;-61
2021/03/18 09:57:41;;;;;;;2.20;1.00;;;23.70;28.50;;;;;;5037753;28;20059;-61
2021/03/18 10:00:09;;;;;;;2.05;0.90;;;23.70;28.60;;;;;;5041483;28;20029;-57
2021/03/18 10:02:36;;;;;;;3.15;1.15;;;23.80;28.60;;;;;;5055304;28;20029;-61
2021/03/18 10:05:02;;;;;;;3.05;0.88;;;23.80;28.60;;;;;;5055510;28;20025;-61
2021/03/18 10:07:30;;;;;;;2.75;1.13;;;23.80;28.60;;;;;;5055310;28;20035;-58
2021/03/18 10:09:56;;;;;;;2.13;1.10;;;23.80;28.60;;;;;;5035183;28;20036;-54
2021/03/18 10:12:25;;;;;;;3.85;1.10;;;23.80;28.60;;;;;;5042531;28;20060;-54
2021/03/18 10:15:00;;;;;;;2.22;1.15;;;23.80;28.60;;;;;;5051288;28;20042;-57
2021/03/18 10:17:38;;;;;;;2.90;1.20;;;23.80;28.60;;;;;;5052847;28;20055;-57
2021/03/18 10:20:11;;;;;;;3.08;1.02;;;23.80;28.60;;;;;;5051383;28;20337;-53
2021/03/18 10:22:57;;;;;;;2.47;1.02;;;23.70;28.60;;;;;;5048567;28;20055;-58
2021/03/18 10:25:24;;;;;;;2.63;1.00;;;23.70;28.50;;;;;;5054357;28;20125;-59
2021/03/18 10:27:57;;;;;;;2.25;0.95;;;23.70;28.60;;;;;;5053465;28;20036;-56
2021/03/18 10:30:24;;;;;;;2.58;1.00;;;23.70;28.70;;;;;;5053062;28;20033;-55
2021/03/18 10:33:09;;;;;;;3.75;1.27;;;23.60;28.70;;;;;;5033489;28;20033;-52
2021/03/18 10:35:41;;;;;;;3.13;1.30;;;23.60;28.60;;;;;;5054141;28;20060;-58
2021/03/18 10:38:10;;;;;;;2.55;1.05;;;23.60;28.60;;;;;;5050856;28;20091;-57
2021/03/18 10:40:55;;;;;;;3.83;1.27;;;23.60;28.60;;;;;;5050376;28;20028;-57
2021/03/18 10:43:23;;;;;;;3.13;1.05;;;23.60;28.50;;;;;;5047755;28;20452;-55
2021/03/18 10:45:50;;;;;;;3.67;1.50;;;23.50;28.50;;;;;;5053162;28;20040;-54
2021/03/18 10:48:22;;;;;;;2.78;1.13;;;23.50;28.50;;;;;;5050034;28;20420;-57
2021/03/18 10:50:49;;;;;;;3.03;0.98;;;23.50;28.50;;;;;;5050560;28;20388;-56
2021/03/18 10:53:15;;;;;;;3.63;1.20;;;23.50;28.50;;;;;;5052982;28;20025;-60
2021/03/18 10:55:52;;;;;;;2.55;1.00;;;23.50;28.50;;;;;;5054228;28;20460;-59
2021/03/18 10:58:20;;;;;;;2.95;1.20;;;23.50;28.50;;;;;;5035872;28;20026;-59
2021/03/18 11:00:47;;;;;;;3.15;1.33;;;23.50;28.50;;;;;;5051247;28;20357;-56
2021/03/18 11:03:15;;;;;;;2.72;1.05;;;23.50;28.50;;;;;;5053260;28;20045;-59
2021/03/18 11:05:51;;;;;;;3.40;1.38;;;23.40;28.40;;;;;;5032376;28;20031;-54
2021/03/18 11:08:29;;;;;;;2.45;1.13;;;23.50;28.40;;;;;;5034526;28;20021;-56
2021/03/18 11:10:56;;;;;;;2.42;0.88;;;23.40;28.40;;;;;;5040515;28;20045;-57
2021/03/18 11:13:30;;;;;;;4.00;1.20;;;23.40;28.40;;;;;;5054323;28;20025;-53
2021/03/18 11:16:02;;;;;;;5.65;1.10;;;23.30;28.40;;;;;;5054300;28;20041;-56
2021/03/18 11:18:42;;;;;;;3.35;1.20;;;23.30;28.40;;;;;;5012131;28;20080;-58
2021/03/18 11:21:27;;;;;;;2.08;0.98;;;23.30;28.40;;;;;;5012361;28;20201;-57
2021/03/18 11:24:02;;;;;;;2.25;1.05;;;23.30;28.40;;;;;;5012352;28;20081;-58
2021/03/18 11:26:28;;;;;;;3.10;1.17;;;23.20;28.30;;;;;;5012224;28;20493;-59
2021/03/18 11:28:56;;;;;;;1.58;0.75;;;23.20;28.30;;;;;;5012217;28;20084;-61
2021/03/18 11:31:24;;;;;;;2.60;0.90;;;23.20;28.30;;;;;;5012392;28;20085;-56
2021/03/18 11:33:50;;;;;;;3.67;1.23;;;23.10;28.20;;;;;;5012250;28;20385;-59
2021/03/18 11:36:16;;;;;;;1.88;1.10;;;23.20;28.20;;;;;;5012254;28;20026;-56
2021/03/18 11:38:43;;;;;;;2.72;0.90;;;23.20;28.10;;;;;;5012041;28;20042;-61
2021/03/18 11:41:08;;;;;;;2.83;1.05;;;23.20;28.10;;;;;;5011748;28;20038;-59
2021/03/18 11:43:35;;;;;;;2.05;0.77;;;23.20;28.10;;;;;;5011908;28;20500;-61
2021/03/18 11:46:01;;;;;;;3.75;1.40;;;23.20;28.10;;;;;;5011924;28;20030;-57
2021/03/18 11:48:27;;;;;;;2.75;1.05;;;23.20;28.00;;;;;;5016696;28;20144;-57
2021/03/18 11:50:54;;;;;;;3.00;0.80;;;23.20;28.00;;;;;;5036402;28;20116;-55
2021/03/18 11:53:20;;;;;;;2.83;1.17;;;23.20;28.00;;;;;;5053937;28;20033;-55
2021/03/18 11:55:45;;;;;;;2.55;1.00;;;23.20;27.90;;;;;;5053589;28;20041;-55
2021/03/18 11:58:11;;;;;;;2.38;0.85;;;23.20;27.90;;;;;;5053187;28;20139;-56
2021/03/18 12:00:38;;;;;;;2.25;1.02;;;23.20;27.90;;;;;;5053493;28;20079;-56
2021/03/18 12:03:09;;;;;;;1.77;0.82;;;23.20;27.90;;;;;;5053755;28;20091;-55
2021/03/18 12:05:37;;;;;;;2.17;0.95;;;23.20;27.80;;;;;;5053721;28;20388;-56
2021/03/18 12:08:03;;;;;;;3.17;1.20;;;23.10;27.80;;;;;;5053724;28;20060;-56
2021/03/18 12:10:30;;;;;;;3.42;0.95;;;23.10;27.80;;;;;;5053188;28;20404;-57
2021/03/18 12:12:56;;;;;;;1.70;0.68;;;23.10;27.80;;;;;;5053954;28;20113;-57
2021/03/18 12:15:22;;;;;;;3.00;0.93;;;23.10;27.80;;;;;;5053954;28;20044;-58
2021/03/18 12:17:48;;;;;;;2.10;0.93;;;23.10;27.80;;;;;;5054438;28;20025;-52
2021/03/18 12:20:17;;;;;;;2.20;0.85;;;23.10;27.80;;;;;;5057159;28;20025;-51
2021/03/18 12:22:47;;;;;;;1.70;0.93;;;23.10;27.80;;;;;;5057274;28;20025;-55
2021/03/18 12:25:14;;;;;;;3.85;1.30;;;23.10;27.80;;;;;;5057426;28;20032;-53
2021/03/18 12:27:41;;;;;;;2.70;0.90;;;23.10;27.80;;;;;;5057262;28;20113;-54
2021/03/18 12:30:10;;;;;;;2.45;1.05;;;23.10;27.80;;;;;;5057192;28;20036;-54
2021/03/18 12:32:36;;;;;;;2.97;1.10;;;23.10;27.80;;;;;;5057358;28;20039;-60
2021/03/18 12:35:03;;;;;;;3.63;1.10;;;23.10;27.80;;;;;;5057287;28;20108;-52
2021/03/18 12:37:29;;;;;;;2.45;0.82;;;23.10;27.80;;;;;;5057297;28;20360;-53
2021/03/18 12:39:55;;;;;;;2.78;1.08;;;23.10;27.70;;;;;;5056956;28;20029;-55
2021/03/18 12:42:21;;;;;;;2.58;0.88;;;23.10;27.70;;;;;;5056759;28;20562;-53
2021/03/18 12:44:47;;;;;;;3.20;0.88;;;23.10;27.70;;;;;;5053761;28;20037;-56
2021/03/18 12:47:13;;;;;;;2.25;1.08;;;23.10;27.70;;;;;;5056576;28;20025;-60
2021/03/18 12:49:39;;;;;;;2.25;0.60;;;23.10;27.70;;;;;;5056162;28;20433;-55
2021/03/18 12:52:06;;;;;;;2.65;0.98;;;23.10;27.70;;;;;;5056860;28;20032;-57
2021/03/18 12:54:33;;;;;;;3.75;1.10;;;23.10;27.70;;;;;;5056741;28;20099;-56
2021/03/18 12:56:59;;;;;;;2.65;1.10;;;23.10;27.70;;;;;;5056823;28;20059;-56
2021/03/18 12:59:25;;;;;;;3.08;1.13;;;23.10;27.70;;;;;;5056493;28;20017;-56
2021/03/18 13:01:51;;;;;;;3.38;1.10;;;23.10;27.60;;;;;;5056322;28;20033;-52